sensor_id;sensor_type;location;lat;lon;timestamp;pressure;altitude;pressure_sealevel;temperature
65272;BMP280;51868;48.812;8.198;2023-07-20T00:01:46;100344.63;;;22.58
65272;BMP280;51868;48.812;8.198;2023-07-20T00:04:14;100341.81;;;22.56
65272;BMP280;51868;48.812;8.198;2023-07-20T00:06:42;100346.06;;;22.51
65272;BMP280;51868;48.812;8.198;2023-07-20T00:09:09;100346.09;;;22.45
65272;BMP280;51868;48.812;8.198;2023-07-20T00:11:37;100348.22;;;22.42
65272;BMP280;51868;48.812;8.198;2023-07-20T00:14:06;100353.91;;;22.38
65272;BMP280;51868;48.812;8.198;2023-07-20T00:16:35;100347.53;;;22.36
65272;BMP280;51868;48.812;8.198;2023-07-20T00:19:03;100348.94;;;22.32
65272;BMP280;51868;48.812;8.198;2023-07-20T00:21:31;100346.16;;;22.26
65272;BMP280;51868;48.812;8.198;2023-07-20T00:23:59;100353.19;;;22.21
65272;BMP280;51868;48.812;8.198;2023-07-20T00:26:27;100355.31;;;22.19
65272;BMP280;51868;48.812;8.198;2023-07-20T00:28:55;100357.47;;;22.18
65272;BMP280;51868;48.812;8.198;2023-07-20T00:31:22;100345.44;;;22.16
65272;BMP280;51868;48.812;8.198;2023-07-20T00:33:52;100345.44;;;22.14
65272;BMP280;51868;48.812;8.198;2023-07-20T00:36:19;100343.31;;;22.10
65272;BMP280;51868;48.812;8.198;2023-07-20T00:38:47;100346.16;;;22.04
65272;BMP280;51868;48.812;8.198;2023-07-20T00:41:15;100351.09;;;21.99
65272;BMP280;51868;48.812;8.198;2023-07-20T00:43:43;100351.09;;;21.95
65272;BMP280;51868;48.812;8.198;2023-07-20T00:46:11;100352.53;;;21.90
65272;BMP280;51868;48.812;8.198;2023-07-20T00:48:40;100351.13;;;21.85
65272;BMP280;51868;48.812;8.198;2023-07-20T00:51:10;100346.88;;;21.82
65272;BMP280;51868;48.812;8.198;2023-07-20T00:53:53;100349.00;;;21.82
65272;BMP280;51868;48.812;8.198;2023-07-20T00:56:22;100346.91;;;21.78
65272;BMP280;51868;48.812;8.198;2023-07-20T00:58:51;100346.19;;;21.73
65272;BMP280;51868;48.812;8.198;2023-07-20T01:01:19;100343.34;;;21.71
65272;BMP280;51868;48.812;8.198;2023-07-20T01:03:48;100342.66;;;21.71
65272;BMP280;51868;48.812;8.198;2023-07-20T01:06:24;100347.59;;;21.70
65272;BMP280;51868;48.812;8.198;2023-07-20T01:09:02;100347.56;;;21.68
65272;BMP280;51868;48.812;8.198;2023-07-20T01:11:49;100345.47;;;21.65
65272;BMP280;51868;48.812;8.198;2023-07-20T01:14:23;100343.31;;;21.59
65272;BMP280;51868;48.812;8.198;2023-07-20T01:16:51;100344.75;;;21.56
65272;BMP280;51868;48.812;8.198;2023-07-20T01:19:19;100343.34;;;21.55
65272;BMP280;51868;48.812;8.198;2023-07-20T01:21:53;100341.94;;;21.54
65272;BMP280;51868;48.812;8.198;2023-07-20T01:24:52;100341.22;;;21.51
65272;BMP280;51868;48.812;8.198;2023-07-20T01:30:46;100339.09;;;21.50
65272;BMP280;51868;48.812;8.198;2023-07-20T01:33:19;100329.91;;;21.47
65272;BMP280;51868;48.812;8.198;2023-07-20T01:35:52;100334.13;;;21.40
65272;BMP280;51868;48.812;8.198;2023-07-20T01:38:21;100326.38;;;21.35
65272;BMP280;51868;48.812;8.198;2023-07-20T01:40:49;100329.88;;;21.29
65272;BMP280;51868;48.812;8.198;2023-07-20T01:43:18;100331.28;;;21.24
65272;BMP280;51868;48.812;8.198;2023-07-20T01:45:46;100339.75;;;21.18
65272;BMP280;51868;48.812;8.198;2023-07-20T01:48:13;100328.44;;;21.12
65272;BMP280;51868;48.812;8.198;2023-07-20T01:50:43;100328.41;;;21.08
65272;BMP280;51868;48.812;8.198;2023-07-20T01:53:10;100332.63;;;21.03
65272;BMP280;51868;48.812;8.198;2023-07-20T01:55:38;100331.19;;;20.97
65272;BMP280;51868;48.812;8.198;2023-07-20T01:58:06;100331.91;;;20.94
65272;BMP280;51868;48.812;8.198;2023-07-20T02:00:36;100329.78;;;20.88
65272;BMP280;51868;48.812;8.198;2023-07-20T02:03:05;100322.69;;;20.83
65272;BMP280;51868;48.812;8.198;2023-07-20T02:05:33;100336.06;;;20.79
65272;BMP280;51868;48.812;8.198;2023-07-20T02:08:02;100328.28;;;20.73
65272;BMP280;51868;48.812;8.198;2023-07-20T02:10:30;100336.75;;;20.73
65272;BMP280;51868;48.812;8.198;2023-07-20T02:12:58;100336.75;;;20.73
65272;BMP280;51868;48.812;8.198;2023-07-20T02:15:26;100328.28;;;20.73
65272;BMP280;51868;48.812;8.198;2023-07-20T02:17:54;100330.41;;;20.77
65272;BMP280;51868;48.812;8.198;2023-07-20T02:20:22;100319.13;;;20.72
65272;BMP280;51868;48.812;8.198;2023-07-20T02:22:50;100333.88;;;20.65
65272;BMP280;51868;48.812;8.198;2023-07-20T02:25:19;100322.56;;;20.57
65272;BMP280;51868;48.812;8.198;2023-07-20T02:27:47;100326.78;;;20.54
65272;BMP280;51868;48.812;8.198;2023-07-20T02:30:15;100320.41;;;20.51
65272;BMP280;51868;48.812;8.198;2023-07-20T02:32:44;100328.19;;;20.51
65272;BMP280;51868;48.812;8.198;2023-07-20T02:35:15;100326.06;;;20.53
65272;BMP280;51868;48.812;8.198;2023-07-20T02:37:43;100336.63;;;20.53
65272;BMP280;51868;48.812;8.198;2023-07-20T02:40:11;100333.13;;;20.50
65272;BMP280;51868;48.812;8.198;2023-07-20T02:42:40;100333.13;;;20.50
65272;BMP280;51868;48.812;8.198;2023-07-20T02:45:09;100332.38;;;20.47
65272;BMP280;51868;48.812;8.198;2023-07-20T02:47:36;100335.16;;;20.39
65272;BMP280;51868;48.812;8.198;2023-07-20T02:50:07;100335.81;;;20.34
65272;BMP280;51868;48.812;8.198;2023-07-20T02:52:35;100338.59;;;20.30
65272;BMP280;51868;48.812;8.198;2023-07-20T02:55:03;100335.06;;;20.27
65272;BMP280;51868;48.812;8.198;2023-07-20T02:57:31;100337.88;;;20.25
65272;BMP280;51868;48.812;8.198;2023-07-20T03:00:01;100339.28;;;20.22
65272;BMP280;51868;48.812;8.198;2023-07-20T03:02:30;100328.00;;;20.20
65272;BMP280;51868;48.812;8.198;2023-07-20T03:04:58;100338.50;;;20.13
65272;BMP280;51868;48.812;8.198;2023-07-20T03:07:28;100337.06;;;20.08
65272;BMP280;51868;48.812;8.198;2023-07-20T03:09:56;100344.06;;;20.05
65272;BMP280;51868;48.812;8.198;2023-07-20T03:12:24;100343.34;;;20.05
65272;BMP280;51868;48.812;8.198;2023-07-20T03:14:51;100339.13;;;20.02
65272;BMP280;51868;48.812;8.198;2023-07-20T03:17:21;100344.69;;;19.95
65272;BMP280;51868;48.812;8.198;2023-07-20T03:19:49;100342.56;;;19.92
65272;BMP280;51868;48.812;8.198;2023-07-20T03:22:17;100343.94;;;19.91
65272;BMP280;51868;48.812;8.198;2023-07-20T03:24:45;100339.00;;;19.89
65272;BMP280;51868;48.812;8.198;2023-07-20T03:27:12;100335.47;;;19.87
65272;BMP280;51868;48.812;8.198;2023-07-20T03:29:40;100336.19;;;19.87
65272;BMP280;51868;48.812;8.198;2023-07-20T03:32:08;100339.72;;;19.88
65272;BMP280;51868;48.812;8.198;2023-07-20T03:34:38;100344.66;;;19.89
65272;BMP280;51868;48.812;8.198;2023-07-20T03:37:06;100343.25;;;19.90
65272;BMP280;51868;48.812;8.198;2023-07-20T03:39:33;100345.38;;;19.90
65272;BMP280;51868;48.812;8.198;2023-07-20T03:42:02;100343.25;;;19.90
65272;BMP280;51868;48.812;8.198;2023-07-20T03:44:30;100340.38;;;19.86
65272;BMP280;51868;48.812;8.198;2023-07-20T03:46:58;100349.50;;;19.79
65272;BMP280;51868;48.812;8.198;2023-07-20T03:49:26;100354.38;;;19.74
65272;BMP280;51868;48.812;8.198;2023-07-20T03:51:55;100357.88;;;19.75
65272;BMP280;51868;48.812;8.198;2023-07-20T03:54:23;100354.41;;;19.78
65272;BMP280;51868;48.812;8.198;2023-07-20T03:56:50;100346.63;;;19.75
65272;BMP280;51868;48.812;8.198;2023-07-20T03:59:18;100350.09;;;19.69
65272;BMP280;51868;48.812;8.198;2023-07-20T04:01:46;100350.75;;;19.65
65272;BMP280;51868;48.812;8.198;2023-07-20T04:04:16;100352.91;;;19.67
65272;BMP280;51868;48.812;8.198;2023-07-20T04:06:44;100356.44;;;19.67
65272;BMP280;51868;48.812;8.198;2023-07-20T04:09:13;100358.53;;;19.67
65272;BMP280;51868;48.812;8.198;2023-07-20T04:11:41;100357.16;;;19.70
65272;BMP280;51868;48.812;8.198;2023-07-20T04:14:09;100355.78;;;19.71
65272;BMP280;51868;48.812;8.198;2023-07-20T04:16:36;100362.78;;;19.70
65272;BMP280;51868;48.812;8.198;2023-07-20T04:19:04;100367.00;;;19.69
65272;BMP280;51868;48.812;8.198;2023-07-20T04:21:32;100372.56;;;19.65
65272;BMP280;51868;48.812;8.198;2023-07-20T04:24:00;100353.56;;;19.63
65272;BMP280;51868;48.812;8.198;2023-07-20T04:26:30;100364.22;;;19.71
65272;BMP280;51868;48.812;8.198;2023-07-20T04:28:57;100357.94;;;19.79
65272;BMP280;51868;48.812;8.198;2023-07-20T04:31:26;100354.47;;;19.84
65272;BMP280;51868;48.812;8.198;2023-07-20T04:33:54;100359.47;;;19.92
65272;BMP280;51868;48.812;8.198;2023-07-20T04:36:22;100351.75;;;19.96
65272;BMP280;51868;48.812;8.198;2023-07-20T04:38:51;100361.66;;;20.02
65272;BMP280;51868;48.812;8.198;2023-07-20T04:41:18;100353.25;;;20.08
65272;BMP280;51868;48.812;8.198;2023-07-20T04:43:48;100361.00;;;20.09
65272;BMP280;51868;48.812;8.198;2023-07-20T04:46:16;100359.59;;;20.12
65272;BMP280;51868;48.812;8.198;2023-07-20T04:48:45;100354.72;;;20.17
65272;BMP280;51868;48.812;8.198;2023-07-20T04:51:14;100361.09;;;20.21
65272;BMP280;51868;48.812;8.198;2023-07-20T04:53:43;100349.16;;;20.27
65272;BMP280;51868;48.812;8.198;2023-07-20T04:56:14;100351.97;;;20.25
65272;BMP280;51868;48.812;8.198;2023-07-20T04:58:42;100353.38;;;20.26
65272;BMP280;51868;48.812;8.198;2023-07-20T05:01:11;100356.94;;;20.33
65272;BMP280;51868;48.812;8.198;2023-07-20T05:03:47;100356.25;;;20.34
65272;BMP280;51868;48.812;8.198;2023-07-20T05:06:15;100357.69;;;20.37
65272;BMP280;51868;48.812;8.198;2023-07-20T05:08:42;100359.84;;;20.41
65272;BMP280;51868;48.812;8.198;2023-07-20T05:11:10;100360.59;;;20.50
65272;BMP280;51868;48.812;8.198;2023-07-20T05:13:38;100359.25;;;20.61
65272;BMP280;51868;48.812;8.198;2023-07-20T05:16:06;100362.13;;;20.71
65272;BMP280;51868;48.812;8.198;2023-07-20T05:18:36;100357.25;;;20.80
65272;BMP280;51868;48.812;8.198;2023-07-20T05:21:05;100355.81;;;20.83
65272;BMP280;51868;48.812;8.198;2023-07-20T05:23:33;100361.50;;;20.91
65272;BMP280;51868;48.812;8.198;2023-07-20T05:26:01;100355.91;;;21.03
65272;BMP280;51868;48.812;8.198;2023-07-20T05:28:30;100358.78;;;21.17
65272;BMP280;51868;48.812;8.198;2023-07-20T05:30:58;100360.94;;;21.29
65272;BMP280;51868;48.812;8.198;2023-07-20T05:33:26;100350.38;;;21.38
65272;BMP280;51868;48.812;8.198;2023-07-20T05:38:23;100352.50;;;21.51
65272;BMP280;51868;48.812;8.198;2023-07-20T05:40:51;100355.34;;;21.58
65272;BMP280;51868;48.812;8.198;2023-07-20T05:43:19;100351.09;;;21.61
65272;BMP280;51868;48.812;8.198;2023-07-20T05:45:47;100358.19;;;21.66
65272;BMP280;51868;48.812;8.198;2023-07-20T05:48:15;100355.34;;;21.58
65272;BMP280;51868;48.812;8.198;2023-07-20T05:50:43;100358.16;;;21.56
65272;BMP280;51868;48.812;8.198;2023-07-20T05:53:12;100364.50;;;21.56
65272;BMP280;51868;48.812;8.198;2023-07-20T05:55:40;100368.03;;;21.52
65272;BMP280;51868;48.812;8.198;2023-07-20T05:58:08;100369.44;;;21.49
65272;BMP280;51868;48.812;8.198;2023-07-20T06:00:36;100373.69;;;21.55
65272;BMP280;51868;48.812;8.198;2023-07-20T06:03:04;100371.56;;;21.59
65272;BMP280;51868;48.812;8.198;2023-07-20T06:05:32;100374.38;;;21.59
65272;BMP280;51868;48.812;8.198;2023-07-20T06:07:59;100372.28;;;21.64
65272;BMP280;51868;48.812;8.198;2023-07-20T06:10:29;100372.28;;;21.72
65272;BMP280;51868;48.812;8.198;2023-07-20T06:12:57;100371.59;;;21.71
65272;BMP280;51868;48.812;8.198;2023-07-20T06:15:26;100375.09;;;21.64
65272;BMP280;51868;48.812;8.198;2023-07-20T06:17:54;100375.09;;;21.53
65272;BMP280;51868;48.812;8.198;2023-07-20T06:20:22;100366.63;;;21.56
65272;BMP280;51868;48.812;8.198;2023-07-20T06:22:50;100372.28;;;21.68
65272;BMP280;51868;48.812;8.198;2023-07-20T06:25:18;100366.69;;;21.78
65272;BMP280;51868;48.812;8.198;2023-07-20T06:27:49;100369.50;;;21.86
65272;BMP280;51868;48.812;8.198;2023-07-20T06:30:18;100368.06;;;21.89
65272;BMP280;51868;48.812;8.198;2023-07-20T06:32:46;100374.44;;;21.90
65272;BMP280;51868;48.812;8.198;2023-07-20T06:35:14;100373.72;;;21.95
65272;BMP280;51868;48.812;8.198;2023-07-20T06:37:43;100370.19;;;22.09
65272;BMP280;51868;48.812;8.198;2023-07-20T06:40:11;100372.28;;;22.27
65272;BMP280;51868;48.812;8.198;2023-07-20T06:42:42;100361.69;;;22.34
65272;BMP280;51868;48.812;8.198;2023-07-20T06:45:15;100369.41;;;22.39
65272;BMP280;51868;48.812;8.198;2023-07-20T06:47:43;100365.88;;;22.39
65272;BMP280;51868;48.812;8.198;2023-07-20T06:50:11;100364.50;;;22.36
65272;BMP280;51868;48.812;8.198;2023-07-20T06:52:44;100374.38;;;22.39
65272;BMP280;51868;48.812;8.198;2023-07-20T06:55:14;100365.19;;;22.40
65272;BMP280;51868;48.812;8.198;2023-07-20T06:57:49;100364.50;;;22.36
65272;BMP280;51868;48.812;8.198;2023-07-20T07:00:21;100368.03;;;22.34
65272;BMP280;51868;48.812;8.198;2023-07-20T07:02:49;100365.88;;;22.35
65272;BMP280;51868;48.812;8.198;2023-07-20T07:05:17;100368.03;;;22.32
65272;BMP280;51868;48.812;8.198;2023-07-20T07:07:47;100366.63;;;22.29
65272;BMP280;51868;48.812;8.198;2023-07-20T07:10:18;100368.78;;;22.22
65272;BMP280;51868;48.812;8.198;2023-07-20T07:13:09;100372.28;;;22.15
65272;BMP280;51868;48.812;8.198;2023-07-20T07:15:38;100371.59;;;22.10
65272;BMP280;51868;48.812;8.198;2023-07-20T07:18:15;100371.59;;;22.14
65272;BMP280;51868;48.812;8.198;2023-07-20T07:20:52;100370.91;;;22.18
65272;BMP280;51868;48.812;8.198;2023-07-20T07:23:49;100369.44;;;22.23
65272;BMP280;51868;48.812;8.198;2023-07-20T07:26:26;100369.44;;;22.31
65272;BMP280;51868;48.812;8.198;2023-07-20T07:28:55;100363.06;;;22.37
65272;BMP280;51868;48.812;8.198;2023-07-20T07:34:32;100363.03;;;22.55
65272;BMP280;51868;48.812;8.198;2023-07-20T07:40:15;100361.34;;;23.13
65272;BMP280;51868;48.812;8.198;2023-07-20T07:43:06;100367.69;;;23.20
65272;BMP280;51868;48.812;8.198;2023-07-20T07:45:35;100363.31;;;23.41
65272;BMP280;51868;48.812;8.198;2023-07-20T07:48:06;100359.00;;;23.52
65272;BMP280;51868;48.812;8.198;2023-07-20T07:50:34;100354.53;;;23.78
65272;BMP280;51868;48.812;8.198;2023-07-20T07:53:02;100355.56;;;24.19
65272;BMP280;51868;48.812;8.198;2023-07-20T07:55:30;100363.09;;;24.41
65272;BMP280;51868;48.812;8.198;2023-07-20T07:57:58;100365.28;;;24.37
65272;BMP280;51868;48.812;8.198;2023-07-20T08:00:26;100362.56;;;24.29
65272;BMP280;51868;48.812;8.198;2023-07-20T08:02:54;100371.09;;;24.25
65272;BMP280;51868;48.812;8.198;2023-07-20T08:05:23;100363.94;;;24.30
65272;BMP280;51868;48.812;8.198;2023-07-20T08:07:52;100359.31;;;24.61
65272;BMP280;51868;48.812;8.198;2023-07-20T08:10:31;100356.81;;;24.92
65272;BMP280;51868;48.812;8.198;2023-07-20T08:13:02;100353.19;;;24.98
65272;BMP280;51868;48.812;8.198;2023-07-20T08:15:32;100356.94;;;25.32
65272;BMP280;51868;48.812;8.198;2023-07-20T08:18:00;100355.00;;;25.20
65272;BMP280;51868;48.812;8.198;2023-07-20T08:20:29;100358.75;;;25.06
65272;BMP280;51868;48.812;8.198;2023-07-20T08:22:58;100357.56;;;24.89
65272;BMP280;51868;48.812;8.198;2023-07-20T08:25:27;100362.06;;;24.71
65272;BMP280;51868;48.812;8.198;2023-07-20T08:27:54;100371.47;;;24.54
65272;BMP280;51868;48.812;8.198;2023-07-20T08:30:22;100375.94;;;24.36
65272;BMP280;51868;48.812;8.198;2023-07-20T08:32:50;100379.63;;;24.25
65272;BMP280;51868;48.812;8.198;2023-07-20T08:35:18;100378.28;;;24.15
65272;BMP280;51868;48.812;8.198;2023-07-20T08:37:50;100370.91;;;24.43
65272;BMP280;51868;48.812;8.198;2023-07-20T08:40:17;100356.38;;;24.71
65272;BMP280;51868;48.812;8.198;2023-07-20T08:42:46;100360.97;;;24.99
65272;BMP280;51868;48.812;8.198;2023-07-20T08:45:16;100352.72;;;25.28
65272;BMP280;51868;48.812;8.198;2023-07-20T08:47:45;100366.09;;;25.36
65272;BMP280;51868;48.812;8.198;2023-07-20T08:50:16;100349.22;;;25.26
65272;BMP280;51868;48.812;8.198;2023-07-20T08:52:44;100353.06;;;25.04
65272;BMP280;51868;48.812;8.198;2023-07-20T08:55:13;100351.88;;;24.91
65272;BMP280;51868;48.812;8.198;2023-07-20T08:57:41;100348.56;;;25.21
65272;BMP280;51868;48.812;8.198;2023-07-20T09:00:11;100349.00;;;25.40
65272;BMP280;51868;48.812;8.198;2023-07-20T09:02:42;100349.31;;;25.63
65272;BMP280;51868;48.812;8.198;2023-07-20T09:05:11;100351.75;;;25.88
65272;BMP280;51868;48.812;8.198;2023-07-20T09:07:41;100348.66;;;26.02
65272;BMP280;51868;48.812;8.198;2023-07-20T09:10:08;100350.19;;;25.95
65272;BMP280;51868;48.812;8.198;2023-07-20T09:12:39;100355.78;;;26.01
65272;BMP280;51868;48.812;8.198;2023-07-20T09:15:09;100358.84;;;25.89
65272;BMP280;51868;48.812;8.198;2023-07-20T09:17:37;100355.50;;;26.15
65272;BMP280;51868;48.812;8.198;2023-07-20T09:20:07;100349.31;;;26.39
65272;BMP280;51868;48.812;8.198;2023-07-20T09:22:37;100348.88;;;26.60
65272;BMP280;51868;48.812;8.198;2023-07-20T09:25:11;100347.75;;;26.80
65272;BMP280;51868;48.812;8.198;2023-07-20T09:27:42;100351.69;;;26.95
65272;BMP280;51868;48.812;8.198;2023-07-20T09:30:11;100334.88;;;27.14
65272;BMP280;51868;48.812;8.198;2023-07-20T09:32:45;100334.72;;;27.20
65272;BMP280;51868;48.812;8.198;2023-07-20T09:35:18;100331.13;;;27.21
65272;BMP280;51868;48.812;8.198;2023-07-20T09:37:50;100335.81;;;27.33
65272;BMP280;51868;48.812;8.198;2023-07-20T09:40:39;100338.25;;;27.49
65272;BMP280;51868;48.812;8.198;2023-07-20T09:43:11;100333.09;;;27.56
65272;BMP280;51868;48.812;8.198;2023-07-20T09:45:42;100331.75;;;27.24
65272;BMP280;51868;48.812;8.198;2023-07-20T09:48:13;100344.06;;;26.85
65272;BMP280;51868;48.812;8.198;2023-07-20T09:50:49;100335.81;;;26.73
65272;BMP280;51868;48.812;8.198;2023-07-20T09:53:17;100334.53;;;26.97
65272;BMP280;51868;48.812;8.198;2023-07-20T09:55:46;100320.47;;;27.20
65272;BMP280;51868;48.812;8.198;2023-07-20T09:58:16;100319.63;;;27.26
65272;BMP280;51868;48.812;8.198;2023-07-20T10:00:45;100318.53;;;27.12
65272;BMP280;51868;48.812;8.198;2023-07-20T10:03:21;100320.41;;;26.93
65272;BMP280;51868;48.812;8.198;2023-07-20T10:05:52;100322.97;;;26.74
65272;BMP280;51868;48.812;8.198;2023-07-20T10:08:24;100311.38;;;26.84
65272;BMP280;51868;48.812;8.198;2023-07-20T10:10:57;100329.97;;;26.79
65272;BMP280;51868;48.812;8.198;2023-07-20T10:13:29;100314.41;;;27.05
65272;BMP280;51868;48.812;8.198;2023-07-20T10:16:01;100320.22;;;27.30
65272;BMP280;51868;48.812;8.198;2023-07-20T10:18:34;100310.94;;;27.59
65272;BMP280;51868;48.812;8.198;2023-07-20T10:21:03;100310.28;;;27.83
65272;BMP280;51868;48.812;8.198;2023-07-20T10:23:40;100310.56;;;27.98
65272;BMP280;51868;48.812;8.198;2023-07-20T10:26:08;100308.25;;;28.04
65272;BMP280;51868;48.812;8.198;2023-07-20T10:28:38;100300.16;;;28.13
65272;BMP280;51868;48.812;8.198;2023-07-20T10:31:07;100298.69;;;28.14
65272;BMP280;51868;48.812;8.198;2023-07-20T10:33:36;100295.38;;;28.30
65272;BMP280;51868;48.812;8.198;2023-07-20T10:36:06;100292.09;;;28.45
65272;BMP280;51868;48.812;8.198;2023-07-20T10:38:52;100286.75;;;28.55
65272;BMP280;51868;48.812;8.198;2023-07-20T10:41:21;100298.31;;;28.74
65272;BMP280;51868;48.812;8.198;2023-07-20T10:43:58;100291.66;;;28.82
65272;BMP280;51868;48.812;8.198;2023-07-20T10:46:43;100287.59;;;28.75
65272;BMP280;51868;48.812;8.198;2023-07-20T10:49:13;100280.47;;;28.74
65272;BMP280;51868;48.812;8.198;2023-07-20T10:51:43;100283.13;;;28.80
65272;BMP280;51868;48.812;8.198;2023-07-20T10:54:33;100283.16;;;29.01
65272;BMP280;51868;48.812;8.198;2023-07-20T10:57:24;100284.78;;;29.16
65272;BMP280;51868;48.812;8.198;2023-07-20T11:00:07;100275.84;;;29.27
65272;BMP280;51868;48.812;8.198;2023-07-20T11:02:42;100277.13;;;29.32
65272;BMP280;51868;48.812;8.198;2023-07-20T11:05:33;100264.03;;;29.39
65272;BMP280;51868;48.812;8.198;2023-07-20T11:08:03;100266.28;;;29.55
65272;BMP280;51868;48.812;8.198;2023-07-20T11:10:32;100262.91;;;29.69
65272;BMP280;51868;48.812;8.198;2023-07-20T11:13:22;100265.63;;;29.73
65272;BMP280;51868;48.812;8.198;2023-07-20T11:16:03;100267.88;;;29.71
65272;BMP280;51868;48.812;8.198;2023-07-20T11:18:35;100265.97;;;29.63
65272;BMP280;51868;48.812;8.198;2023-07-20T11:21:09;100264.66;;;29.60
65272;BMP280;51868;48.812;8.198;2023-07-20T11:23:38;100255.63;;;29.53
65272;BMP280;51868;48.812;8.198;2023-07-20T11:26:06;100254.75;;;29.57
65272;BMP280;51868;48.812;8.198;2023-07-20T11:28:35;100250.53;;;29.75
65272;BMP280;51868;48.812;8.198;2023-07-20T11:31:04;100239.25;;;29.90
65272;BMP280;51868;48.812;8.198;2023-07-20T11:33:32;100239.81;;;29.94
65272;BMP280;51868;48.812;8.198;2023-07-20T11:35:59;100239.72;;;29.96
65272;BMP280;51868;48.812;8.198;2023-07-20T11:38:28;100236.25;;;29.94
65272;BMP280;51868;48.812;8.198;2023-07-20T11:40:56;100233.41;;;29.94
65272;BMP280;51868;48.812;8.198;2023-07-20T11:43:25;100225.34;;;29.98
65272;BMP280;51868;48.812;8.198;2023-07-20T11:45:53;100227.81;;;29.90
65272;BMP280;51868;48.812;8.198;2023-07-20T11:48:22;100226.34;;;29.91
65272;BMP280;51868;48.812;8.198;2023-07-20T11:50:56;100229.91;;;29.91
65272;BMP280;51868;48.812;8.198;2023-07-20T11:53:25;100227.81;;;29.90
65272;BMP280;51868;48.812;8.198;2023-07-20T11:56:04;100226.50;;;29.87
65272;BMP280;51868;48.812;8.198;2023-07-20T11:58:31;100219.78;;;29.94
65272;BMP280;51868;48.812;8.198;2023-07-20T12:00:59;100223.09;;;30.01
65272;BMP280;51868;48.812;8.198;2023-07-20T12:03:29;100212.72;;;30.10
65272;BMP280;51868;48.812;8.198;2023-07-20T12:06:06;100220.41;;;29.97
65272;BMP280;51868;48.812;8.198;2023-07-20T12:08:34;100203.09;;;29.82
65272;BMP280;51868;48.812;8.198;2023-07-20T12:11:02;100211.75;;;29.80
65272;BMP280;51868;48.812;8.198;2023-07-20T12:13:42;100203.69;;;29.85
65272;BMP280;51868;48.812;8.198;2023-07-20T12:16:38;100207.16;;;29.87
65272;BMP280;51868;48.812;8.198;2023-07-20T12:22:45;100200.44;;;29.95
65272;BMP280;51868;48.812;8.198;2023-07-20T12:25:13;100195.91;;;29.83
65272;BMP280;51868;48.812;8.198;2023-07-20T12:27:44;100201.22;;;29.74
65272;BMP280;51868;48.812;8.198;2023-07-20T12:30:18;100196.13;;;29.77
65272;BMP280;51868;48.812;8.198;2023-07-20T12:32:53;100200.38;;;29.78
65272;BMP280;51868;48.812;8.198;2023-07-20T12:35:22;100195.03;;;29.87
65272;BMP280;51868;48.812;8.198;2023-07-20T12:38:18;100181.66;;;30.00
65272;BMP280;51868;48.812;8.198;2023-07-20T12:40:46;100175.47;;;30.12
65272;BMP280;51868;48.812;8.198;2023-07-20T12:43:14;100180.84;;;30.20
65272;BMP280;51868;48.812;8.198;2023-07-20T12:45:42;100175.41;;;30.31
65272;BMP280;51868;48.812;8.198;2023-07-20T12:48:12;100169.59;;;30.33
65272;BMP280;51868;48.812;8.198;2023-07-20T12:50:46;100171.50;;;30.38
65272;BMP280;51868;48.812;8.198;2023-07-20T12:53:34;100164.13;;;30.44
65272;BMP280;51868;48.812;8.198;2023-07-20T12:56:36;100163.59;;;30.39
65272;BMP280;51868;48.812;8.198;2023-07-20T12:59:15;100162.91;;;30.38
65272;BMP280;51868;48.812;8.198;2023-07-20T13:01:49;100169.63;;;30.50
65272;BMP280;51868;48.812;8.198;2023-07-20T13:04:17;100170.97;;;30.51
65272;BMP280;51868;48.812;8.198;2023-07-20T13:06:46;100163.59;;;30.39
65272;BMP280;51868;48.812;8.198;2023-07-20T13:09:15;100160.94;;;30.35
65272;BMP280;51868;48.812;8.198;2023-07-20T13:11:43;100166.03;;;30.32
65272;BMP280;51868;48.812;8.198;2023-07-20T13:14:39;100169.88;;;30.08
65272;BMP280;51868;48.812;8.198;2023-07-20T13:17:07;100170.53;;;29.92
65272;BMP280;51868;48.812;8.198;2023-07-20T13:19:37;100162.00;;;29.90
65272;BMP280;51868;48.812;8.198;2023-07-20T13:22:06;100156.47;;;29.86
65272;BMP280;51868;48.812;8.198;2023-07-20T13:24:38;100155.75;;;29.85
65272;BMP280;51868;48.812;8.198;2023-07-20T13:27:06;100155.06;;;29.85
65272;BMP280;51868;48.812;8.198;2023-07-20T13:29:47;100145.25;;;29.79
65272;BMP280;51868;48.812;8.198;2023-07-20T13:32:15;100158.56;;;29.68
65272;BMP280;51868;48.812;8.198;2023-07-20T13:34:48;100157.50;;;29.59
65272;BMP280;51868;48.812;8.198;2023-07-20T13:37:16;100144.78;;;29.54
65272;BMP280;51868;48.812;8.198;2023-07-20T13:39:45;100141.91;;;29.54
65272;BMP280;51868;48.812;8.198;2023-07-20T13:42:15;100142.41;;;29.61
65272;BMP280;51868;48.812;8.198;2023-07-20T13:44:47;100140.16;;;29.63
65272;BMP280;51868;48.812;8.198;2023-07-20T13:47:15;100141.31;;;29.70
65272;BMP280;51868;48.812;8.198;2023-07-20T13:49:54;100126.69;;;29.78
65272;BMP280;51868;48.812;8.198;2023-07-20T13:52:25;100131.66;;;29.80
65272;BMP280;51868;48.812;8.198;2023-07-20T13:54:57;100123.84;;;29.78
65272;BMP280;51868;48.812;8.198;2023-07-20T13:57:27;100129.03;;;29.74
65272;BMP280;51868;48.812;8.198;2023-07-20T13:59:54;100124.00;;;29.74
65272;BMP280;51868;48.812;8.198;2023-07-20T14:02:22;100133.38;;;29.73
65272;BMP280;51868;48.812;8.198;2023-07-20T14:04:53;100118.53;;;29.68
65272;BMP280;51868;48.812;8.198;2023-07-20T14:07:25;100119.28;;;29.67
65272;BMP280;51868;48.812;8.198;2023-07-20T14:09:53;100110.63;;;29.69
65272;BMP280;51868;48.812;8.198;2023-07-20T14:12:26;100114.41;;;29.63
65272;BMP280;51868;48.812;8.198;2023-07-20T14:14:54;100105.91;;;29.61
65272;BMP280;51868;48.812;8.198;2023-07-20T14:17:23;100112.34;;;29.62
65272;BMP280;51868;48.812;8.198;2023-07-20T14:19:53;100110.25;;;29.60
65272;BMP280;51868;48.812;8.198;2023-07-20T14:22:21;100101.75;;;29.58
65272;BMP280;51868;48.812;8.198;2023-07-20T14:24:49;100109.03;;;29.55
65272;BMP280;51868;48.812;8.198;2023-07-20T14:27:17;100100.53;;;29.53
65272;BMP280;51868;48.812;8.198;2023-07-20T14:29:47;100108.78;;;29.42
65272;BMP280;51868;48.812;8.198;2023-07-20T14:32:15;100108.38;;;29.34